• images/banner/banner1.jpg
  • images/banner/banner2.jpg

Team Member Login

Aviation Weather

[source: ADDS]
METAR
EGVN 221550Z 08008KT 9999 FEW030 04/M03 Q1022 NOSIG =
TAF
TAF EGVN 221324Z 2215/2315 10008KT 9999 SCT025 PROB30 TEMPO 2302/2308 5000 HZ =